createdAt,value
2022-09-10T00:00:48.678Z,18.95
2022-09-10T00:03:16.392Z,18.98
2022-09-10T00:05:46.312Z,19.03
2022-09-10T00:08:14.150Z,18.98
2022-09-10T00:10:45.027Z,18.98
2022-09-10T00:13:13.783Z,18.90
2022-09-10T00:15:41.951Z,18.93
2022-09-10T00:18:10.872Z,18.89
2022-09-10T00:20:43.803Z,18.97
2022-09-10T00:23:12.042Z,18.92
2022-09-10T00:25:40.147Z,18.96
2022-09-10T00:28:09.608Z,19.01
2022-09-10T00:30:41.286Z,19.02
2022-09-10T00:33:09.069Z,18.87
2022-09-10T00:35:37.511Z,18.91
2022-09-10T00:38:05.512Z,18.86
2022-09-10T00:40:34.186Z,18.97
2022-09-10T00:43:02.214Z,18.95
2022-09-10T00:45:34.185Z,18.96
2022-09-10T00:48:06.035Z,18.88
2022-09-10T00:50:36.976Z,19.00
2022-09-10T00:53:08.101Z,19.00
2022-09-10T00:55:38.333Z,18.93
2022-09-10T00:58:10.076Z,18.99
2022-09-10T01:00:41.174Z,19.02
2022-09-10T01:03:12.348Z,18.80
2022-09-10T01:05:42.395Z,18.76
2022-09-10T01:08:14.099Z,18.76
2022-09-10T01:10:55.062Z,18.85
2022-09-10T01:13:37.467Z,18.89
2022-09-10T01:16:16.145Z,18.89
2022-09-10T01:18:57.398Z,18.92
2022-09-10T01:21:30.989Z,18.89
2022-09-10T01:24:24.174Z,18.90
2022-09-10T01:27:08.765Z,18.86
2022-09-10T01:29:42.338Z,18.78
2022-09-10T01:32:15.447Z,18.85
2022-09-10T01:34:55.336Z,18.86
2022-09-10T01:37:28.536Z,18.75
2022-09-10T01:39:57.477Z,18.77
2022-09-10T01:42:27.055Z,18.74
2022-09-10T01:44:59.059Z,18.77
2022-09-10T01:47:40.695Z,18.81
2022-09-10T01:50:20.976Z,18.83
2022-09-10T01:53:06.092Z,18.83
2022-09-10T01:55:43.665Z,18.80
2022-09-10T01:58:21.283Z,18.78
2022-09-10T02:01:10.911Z,18.65
2022-09-10T02:03:41.210Z,18.74
2022-09-10T02:06:14.324Z,18.77
2022-09-10T02:08:48.781Z,18.74
2022-09-10T02:11:17.079Z,18.74
2022-09-10T02:13:49.455Z,18.77
2022-09-10T02:16:41.326Z,18.79
2022-09-10T02:19:11.220Z,18.77
2022-09-10T02:21:39.167Z,18.77
2022-09-10T02:24:09.942Z,18.81
2022-09-10T02:26:40.370Z,18.70
2022-09-10T02:29:09.031Z,18.64
2022-09-10T02:31:40.757Z,18.75
2022-09-10T02:34:08.842Z,18.70
2022-09-10T02:36:36.958Z,18.74
2022-09-10T02:39:05.956Z,18.68
2022-09-10T02:41:35.147Z,18.77
2022-09-10T02:44:04.899Z,18.82
2022-09-10T02:46:32.969Z,18.74
2022-09-10T02:49:02.060Z,18.79
2022-09-10T02:51:33.135Z,18.76
2022-09-10T02:54:01.412Z,18.73
2022-09-10T02:56:29.219Z,18.68
2022-09-10T02:58:58.758Z,18.69
2022-09-10T03:01:27.955Z,18.68
2022-09-10T03:04:04.047Z,18.74
2022-09-10T03:06:33.079Z,18.74
2022-09-10T03:09:02.085Z,18.71
2022-09-10T03:11:29.800Z,18.82
2022-09-10T03:13:59.514Z,18.73
2022-09-10T03:16:27.988Z,18.79
2022-09-10T03:18:56.427Z,18.73
2022-09-10T03:21:26.100Z,18.81
2022-09-10T03:23:56.995Z,18.80
2022-09-10T03:26:27.884Z,18.83
2022-09-10T03:28:56.188Z,18.81
2022-09-10T03:31:27.307Z,18.61
2022-09-10T03:33:55.205Z,18.70
2022-09-10T03:36:23.076Z,18.77
2022-09-10T03:38:52.886Z,18.82
2022-09-10T03:41:20.653Z,18.77
2022-09-10T03:43:49.479Z,18.77
2022-09-10T03:46:17.237Z,18.82
2022-09-10T03:48:48.547Z,18.83
2022-09-10T03:51:23.200Z,18.81
2022-09-10T03:53:52.336Z,18.81
2022-09-10T03:56:22.391Z,18.81
2022-09-10T03:58:50.160Z,18.77
2022-09-10T04:01:18.387Z,18.81
2022-09-10T04:03:49.097Z,18.79
2022-09-10T04:06:17.124Z,18.87
2022-09-10T04:08:45.051Z,18.82
2022-09-10T04:11:17.115Z,18.83
2022-09-10T04:13:45.370Z,18.86
2022-09-10T04:16:13.674Z,18.89
2022-09-10T04:18:41.741Z,18.91
2022-09-10T04:21:09.898Z,18.88
2022-09-10T04:23:41.140Z,18.89
2022-09-10T04:26:14.478Z,18.83
2022-09-10T04:28:44.236Z,18.88
2022-09-10T04:31:13.297Z,18.76
2022-09-10T04:33:41.344Z,18.82
2022-09-10T04:36:09.415Z,18.73
2022-09-10T04:38:41.632Z,18.81
2022-09-10T04:41:10.400Z,18.75
2022-09-10T04:43:38.895Z,18.72
2022-09-10T04:46:08.826Z,18.68
2022-09-10T04:48:40.234Z,18.55
2022-09-10T04:51:17.195Z,18.64
2022-09-10T04:53:48.236Z,18.59
2022-09-10T04:56:16.656Z,18.55
2022-09-10T04:58:45.293Z,18.53
2022-09-10T05:01:15.314Z,18.61
2022-09-10T05:03:45.764Z,18.62
2022-09-10T05:06:13.865Z,18.60
2022-09-10T05:08:44.898Z,18.69
2022-09-10T05:11:13.326Z,18.71
2022-09-10T05:13:43.044Z,18.74
2022-09-10T05:16:11.748Z,18.72
2022-09-10T05:18:40.872Z,18.77
2022-09-10T05:21:10.293Z,18.68
2022-09-10T05:23:39.488Z,18.73
2022-09-10T05:26:08.449Z,18.66
2022-09-10T05:28:39.215Z,18.67
2022-09-10T05:31:09.939Z,18.67
2022-09-10T05:33:40.766Z,18.77
2022-09-10T05:36:11.598Z,18.76
2022-09-10T05:38:41.518Z,18.71
2022-09-10T05:41:11.396Z,18.81
2022-09-10T05:43:43.479Z,18.86
2022-09-10T05:46:12.560Z,18.80
2022-09-10T05:48:44.657Z,18.86
2022-09-10T05:51:13.763Z,18.88
2022-09-10T05:53:42.746Z,18.88
2022-09-10T05:56:11.791Z,18.85
2022-09-10T05:58:41.419Z,18.75
2022-09-10T06:01:11.048Z,18.87
2022-09-10T06:03:40.720Z,18.84
2022-09-10T06:06:10.864Z,18.89
2022-09-10T06:08:44.250Z,18.82
2022-09-10T06:11:19.328Z,18.90
2022-09-10T06:13:50.275Z,18.90
2022-09-10T06:16:19.480Z,18.92
2022-09-10T06:18:47.503Z,18.96
2022-09-10T06:21:23.009Z,18.96
2022-09-10T06:23:54.766Z,18.98
2022-09-10T06:26:24.411Z,18.91
2022-09-10T06:28:56.766Z,18.78
2022-09-10T06:31:25.114Z,18.80
2022-09-10T06:33:55.842Z,18.82
2022-09-10T06:36:30.069Z,18.94
2022-09-10T06:38:59.875Z,18.87
2022-09-10T06:41:30.920Z,18.87
2022-09-10T06:44:04.251Z,18.91
2022-09-10T06:49:32.148Z,18.83
2022-09-10T06:52:01.616Z,18.79
2022-09-10T06:54:29.572Z,18.82
2022-09-10T06:57:07.675Z,18.88
2022-09-10T06:59:35.724Z,18.78
2022-09-10T07:02:03.813Z,18.82
2022-09-10T07:04:34.792Z,18.71
2022-09-10T07:07:04.091Z,18.74
2022-09-10T07:09:32.968Z,18.78
2022-09-10T07:12:04.816Z,18.76
2022-09-10T07:14:35.873Z,18.86
2022-09-10T07:17:07.113Z,18.90
2022-09-10T07:19:36.278Z,18.94
2022-09-10T07:22:09.283Z,18.94
2022-09-10T07:24:39.086Z,18.88
2022-09-10T07:27:13.428Z,18.81
2022-09-10T07:29:43.584Z,18.88
2022-09-10T07:32:15.413Z,18.98
2022-09-10T07:34:43.169Z,18.95
2022-09-10T07:37:15.707Z,18.84
2022-09-10T07:39:43.989Z,18.92
2022-09-10T07:42:12.294Z,18.82
2022-09-10T07:44:41.436Z,18.86
2022-09-10T07:47:11.080Z,18.89
2022-09-10T07:49:43.252Z,18.91
2022-09-10T07:52:18.720Z,18.95
2022-09-10T07:54:51.247Z,18.95
2022-09-10T07:57:21.344Z,18.89
2022-09-10T07:59:49.051Z,18.95
2022-09-10T08:02:22.333Z,19.03
2022-09-10T08:04:56.982Z,19.01
2022-09-10T08:07:26.557Z,18.98
2022-09-10T08:09:54.290Z,18.97
2022-09-10T08:12:22.106Z,18.96
2022-09-10T08:14:50.750Z,18.98
2022-09-10T08:17:19.562Z,19.02
2022-09-10T08:19:52.042Z,19.06
2022-09-10T08:22:20.531Z,19.06
2022-09-10T08:24:56.139Z,19.13
2022-09-10T08:27:29.868Z,19.12
2022-09-10T08:30:00.407Z,19.14
2022-09-10T08:32:29.083Z,19.20
2022-09-10T08:34:58.196Z,19.25
2022-09-10T08:37:26.835Z,19.29
2022-09-10T08:39:56.856Z,19.29
2022-09-10T08:42:33.428Z,19.25
2022-09-10T08:45:06.956Z,19.32
2022-09-10T08:47:46.143Z,19.38
2022-09-10T08:50:23.162Z,19.49
2022-09-10T08:52:56.184Z,19.40
2022-09-10T08:55:32.577Z,19.46
2022-09-10T08:58:11.335Z,19.57
2022-09-10T09:00:44.488Z,19.64
2022-09-10T09:03:22.586Z,19.61
2022-09-10T09:05:55.482Z,19.65
2022-09-10T09:08:32.532Z,19.63
2022-09-10T09:11:13.944Z,19.66
2022-09-10T09:13:55.586Z,19.72
2022-09-10T09:16:39.783Z,19.68
2022-09-10T09:19:18.903Z,19.60
2022-09-10T09:21:53.090Z,19.55
2022-09-10T09:24:25.686Z,19.41
2022-09-10T09:27:02.772Z,19.49
2022-09-10T09:29:38.106Z,19.48
2022-09-10T09:32:06.938Z,19.47
2022-09-10T09:34:39.749Z,19.48
2022-09-10T09:37:17.895Z,19.49
2022-09-10T09:39:53.986Z,19.37
2022-09-10T09:42:30.193Z,19.28
2022-09-10T09:45:03.928Z,19.14
2022-09-10T09:47:31.948Z,19.20
2022-09-10T09:50:00.297Z,19.21
2022-09-10T09:52:32.167Z,19.18
2022-09-10T09:55:15.591Z,19.24
2022-09-10T09:57:47.120Z,19.15
2022-09-10T10:00:34.475Z,19.02
2022-09-10T10:03:11.172Z,19.07
2022-09-10T10:05:38.973Z,18.93
2022-09-10T10:08:07.316Z,19.00
2022-09-10T10:10:35.089Z,19.01
2022-09-10T10:13:04.172Z,19.16
2022-09-10T10:15:37.665Z,19.10
2022-09-10T10:18:26.647Z,19.28
2022-09-10T10:21:13.799Z,19.24
2022-09-10T10:23:41.868Z,19.15
2022-09-10T10:26:31.059Z,19.22
2022-09-10T10:29:04.137Z,19.21
2022-09-10T10:31:39.665Z,19.10
2022-09-10T10:34:29.919Z,19.23
2022-09-10T10:37:08.583Z,19.18
2022-09-10T10:39:51.643Z,19.11
2022-09-10T10:42:28.857Z,19.05
2022-09-10T10:45:08.188Z,19.08
2022-09-10T10:47:46.397Z,19.14
2022-09-10T10:50:25.464Z,19.23
2022-09-10T10:53:12.468Z,19.36
2022-09-10T10:55:43.340Z,19.34
2022-09-10T10:58:39.135Z,19.31
2022-09-10T11:01:19.016Z,19.27
2022-09-10T11:03:54.504Z,19.32
2022-09-10T11:06:24.617Z,19.25
2022-09-10T11:08:57.468Z,19.24
2022-09-10T11:11:32.350Z,19.28
2022-09-10T11:14:07.308Z,19.20
2022-09-10T11:16:41.563Z,19.16
2022-09-10T11:19:14.800Z,19.16
2022-09-10T11:21:49.210Z,19.01
2022-09-10T11:24:22.013Z,19.04
2022-09-10T11:26:55.020Z,18.83
2022-09-10T11:29:32.212Z,18.83
2022-09-10T11:32:09.333Z,18.75
2022-09-10T11:34:47.726Z,18.81
2022-09-10T11:37:21.002Z,18.80
2022-09-10T11:39:53.361Z,18.75
2022-09-10T11:42:28.543Z,18.79
2022-09-10T11:45:03.704Z,18.77
2022-09-10T11:47:38.287Z,18.84
2022-09-10T11:50:23.325Z,18.83
2022-09-10T11:52:53.270Z,18.80
2022-09-10T11:55:21.939Z,18.81
2022-09-10T11:58:01.193Z,18.84
2022-09-10T12:00:36.559Z,18.81
2022-09-10T12:03:38.221Z,18.89
2022-09-10T12:06:11.588Z,18.94
2022-09-10T12:08:56.893Z,18.95
2022-09-10T12:11:31.603Z,18.86
2022-09-10T12:13:59.423Z,18.79
2022-09-10T12:16:35.727Z,18.76
2022-09-10T12:19:08.675Z,18.70
2022-09-10T12:21:41.412Z,18.74
2022-09-10T12:24:26.928Z,18.75
2022-09-10T12:26:55.603Z,18.71
2022-09-10T12:29:33.140Z,18.74
2022-09-10T12:32:30.284Z,18.69
2022-09-10T12:35:34.551Z,18.72
2022-09-10T12:38:52.585Z,18.71
2022-09-10T12:41:56.850Z,18.66
2022-09-10T12:44:44.120Z,18.57
2022-09-10T12:47:40.372Z,18.52
2022-09-10T12:50:20.441Z,18.51
2022-09-10T12:53:03.440Z,18.26
2022-09-10T12:55:41.800Z,18.60
2022-09-10T12:58:24.016Z,18.63
2022-09-10T13:01:09.518Z,18.73
2022-09-10T13:03:37.548Z,18.67
2022-09-10T13:06:09.722Z,18.68
2022-09-10T13:08:43.256Z,18.70
2022-09-10T13:11:20.146Z,18.71
2022-09-10T13:13:56.353Z,18.75
2022-09-10T13:16:40.217Z,18.70
2022-09-10T13:19:47.757Z,18.69
2022-09-10T13:22:32.416Z,18.76
2022-09-10T13:25:02.441Z,18.90
2022-09-10T13:27:39.161Z,18.85
2022-09-10T13:30:20.339Z,18.77
2022-09-10T13:32:52.925Z,18.75
2022-09-10T13:35:47.853Z,18.72
2022-09-10T13:38:30.867Z,18.82
2022-09-10T13:41:34.060Z,18.83
2022-09-10T13:44:16.962Z,18.78
2022-09-10T13:46:49.711Z,18.70
2022-09-10T13:49:24.206Z,18.73
2022-09-10T13:51:54.139Z,18.83
2022-09-10T13:54:31.248Z,18.74
2022-09-10T13:57:04.367Z,18.78
2022-09-10T13:59:34.711Z,18.75
2022-09-10T14:02:04.000Z,18.70
2022-09-10T14:04:36.576Z,18.93
2022-09-10T14:07:13.007Z,18.96
2022-09-10T14:09:43.387Z,18.96
2022-09-10T14:12:13.813Z,19.01
2022-09-10T14:14:46.067Z,19.03
2022-09-10T14:17:18.891Z,19.07
2022-09-10T14:19:52.232Z,19.07
2022-09-10T14:22:22.180Z,19.15
2022-09-10T14:24:53.776Z,19.10
2022-09-10T14:27:26.143Z,19.01
2022-09-10T14:29:57.395Z,19.14
2022-09-10T14:32:32.698Z,19.02
2022-09-10T14:35:09.940Z,18.98
2022-09-10T14:37:38.853Z,18.97
2022-09-10T14:40:17.414Z,19.13
2022-09-10T14:42:46.456Z,19.11
2022-09-10T14:45:40.033Z,19.11
2022-09-10T14:48:31.202Z,19.10
2022-09-10T14:51:17.473Z,19.11
2022-09-10T14:53:47.048Z,19.14
2022-09-10T14:56:23.008Z,19.14
2022-09-10T14:58:59.262Z,19.19
2022-09-10T15:01:27.923Z,19.09
2022-09-10T15:03:57.520Z,19.21
2022-09-10T15:06:26.836Z,19.18
2022-09-10T15:08:56.731Z,18.95
2022-09-10T15:11:27.247Z,19.07
2022-09-10T15:13:56.736Z,19.06
2022-09-10T15:16:24.543Z,18.96
2022-09-10T15:18:52.307Z,18.95
2022-09-10T15:21:22.330Z,18.88
2022-09-10T15:23:50.026Z,18.67
2022-09-10T15:26:18.020Z,18.82
2022-09-10T15:28:45.703Z,18.75
2022-09-10T15:31:13.464Z,18.80
2022-09-10T15:33:41.993Z,18.74
2022-09-10T15:36:10.747Z,18.76
2022-09-10T15:38:40.149Z,18.83
2022-09-10T15:41:12.656Z,18.82
2022-09-10T15:43:43.631Z,18.71
2022-09-10T15:46:13.051Z,18.65
2022-09-10T15:48:41.866Z,18.69
2022-09-10T15:51:14.962Z,18.74
2022-09-10T15:53:46.138Z,18.66
2022-09-10T15:56:13.858Z,18.71
2022-09-10T15:58:43.232Z,18.72
2022-09-10T16:01:12.693Z,18.73
2022-09-10T16:03:46.098Z,18.75
2022-09-10T16:06:14.605Z,18.76
2022-09-10T16:08:42.462Z,18.76
2022-09-10T16:11:12.759Z,18.75
2022-09-10T16:13:40.467Z,18.70
2022-09-10T16:16:11.179Z,18.77
2022-09-10T16:18:38.981Z,18.72
2022-09-10T16:21:09.343Z,18.81
2022-09-10T16:23:38.181Z,18.70
2022-09-10T16:26:07.596Z,18.80
2022-09-10T16:28:37.197Z,18.86
2022-09-10T16:31:16.121Z,18.84
2022-09-10T16:33:44.401Z,18.78
2022-09-10T16:36:13.011Z,18.77
2022-09-10T16:38:41.677Z,18.77
2022-09-10T16:41:11.724Z,18.71
2022-09-10T16:43:42.266Z,18.84
2022-09-10T16:46:11.740Z,18.78
2022-09-10T16:48:41.456Z,18.83
2022-09-10T16:51:10.648Z,18.72
2022-09-10T16:53:38.652Z,18.85
2022-09-10T16:56:08.612Z,18.86
2022-09-10T16:58:37.120Z,18.82
2022-09-10T17:01:09.061Z,18.76
2022-09-10T17:03:40.423Z,18.82
2022-09-10T17:06:14.388Z,18.85
2022-09-10T17:08:42.205Z,18.87
2022-09-10T17:11:10.303Z,18.80
2022-09-10T17:13:38.391Z,18.85
2022-09-10T17:16:23.305Z,18.84
2022-09-10T17:18:56.022Z,18.83
2022-09-10T17:21:23.728Z,18.86
2022-09-10T17:23:52.888Z,18.79
2022-09-10T17:26:20.623Z,18.83
2022-09-10T17:28:54.500Z,18.84
2022-09-10T17:31:24.609Z,18.81
2022-09-10T17:33:52.910Z,18.86
2022-09-10T17:36:20.816Z,18.85
2022-09-10T17:38:48.740Z,18.85
2022-09-10T17:41:16.735Z,18.82
2022-09-10T17:43:44.782Z,18.91
2022-09-10T17:46:15.511Z,18.93
2022-09-10T17:48:48.099Z,18.90
2022-09-10T17:51:17.424Z,18.85
2022-09-10T17:53:45.579Z,18.86
2022-09-10T17:56:15.363Z,18.86
2022-09-10T17:58:43.223Z,18.86
2022-09-10T18:01:14.818Z,18.89
2022-09-10T18:03:43.871Z,18.85
2022-09-10T18:06:13.387Z,18.86
2022-09-10T18:08:41.847Z,18.86
2022-09-10T18:11:11.747Z,18.85
2022-09-10T18:13:39.621Z,18.77
2022-09-10T18:16:09.026Z,18.82
2022-09-10T18:18:37.603Z,18.78
2022-09-10T18:21:14.544Z,18.83
2022-09-10T18:23:44.221Z,18.68
2022-09-10T18:26:14.323Z,18.78
2022-09-10T18:28:42.651Z,18.62
2022-09-10T18:31:10.496Z,18.74
2022-09-10T18:33:40.165Z,18.78
2022-09-10T18:36:14.843Z,18.75
2022-09-10T18:38:43.314Z,18.77
2022-09-10T18:41:19.068Z,18.81
2022-09-10T18:43:47.694Z,18.85
2022-09-10T18:46:15.945Z,18.84
2022-09-10T18:48:44.693Z,18.77
2022-09-10T18:51:14.580Z,18.74
2022-09-10T18:53:44.572Z,18.74
2022-09-10T18:56:14.263Z,18.76
2022-09-10T18:58:42.357Z,18.76
2022-09-10T19:01:12.820Z,18.81
2022-09-10T19:03:43.181Z,18.74
2022-09-10T19:06:15.088Z,18.75
2022-09-10T19:08:49.127Z,18.75
2022-09-10T19:11:19.056Z,18.78
2022-09-10T19:13:50.973Z,18.84
2022-09-10T19:16:19.574Z,18.81
2022-09-10T19:18:52.583Z,18.88
2022-09-10T19:21:23.028Z,18.90
2022-09-10T19:23:56.238Z,18.83
2022-09-10T19:26:26.758Z,18.75
2022-09-10T19:28:57.468Z,18.82
2022-09-10T19:31:26.696Z,18.88
2022-09-10T19:33:57.144Z,18.86
2022-09-10T19:36:27.466Z,18.83
2022-09-10T19:38:55.763Z,18.82
2022-09-10T19:41:25.468Z,18.75
2022-09-10T19:43:55.325Z,18.83
2022-09-10T19:46:24.902Z,18.82
2022-09-10T19:48:53.220Z,18.76
2022-09-10T19:51:21.648Z,18.74
2022-09-10T19:53:51.171Z,18.76
2022-09-10T19:56:21.200Z,18.82
2022-09-10T19:58:50.949Z,18.78
2022-09-10T20:01:21.002Z,18.78
2022-09-10T20:03:50.484Z,18.80
2022-09-10T20:06:20.478Z,18.76
2022-09-10T20:08:50.709Z,18.75
2022-09-10T20:11:20.688Z,18.70
2022-09-10T20:13:49.052Z,18.79
2022-09-10T20:16:17.753Z,18.77
2022-09-10T20:18:46.615Z,18.80
2022-09-10T20:21:17.340Z,18.75
2022-09-10T20:23:46.651Z,18.66
2022-09-10T20:26:17.420Z,18.77
2022-09-10T20:28:45.823Z,18.75
2022-09-10T20:31:14.044Z,18.70
2022-09-10T20:33:43.426Z,18.78
2022-09-10T20:36:13.363Z,18.69
2022-09-10T20:38:41.125Z,18.75
2022-09-10T20:41:09.063Z,18.78
2022-09-10T20:43:38.188Z,18.60
2022-09-10T20:46:06.521Z,18.77
2022-09-10T20:48:34.284Z,18.76
2022-09-10T20:51:02.500Z,18.60
2022-09-10T20:53:30.232Z,18.70
2022-09-10T20:56:06.287Z,18.79
2022-09-10T20:58:36.803Z,18.72
2022-09-10T21:01:11.920Z,18.71
2022-09-10T21:03:40.939Z,18.70
2022-09-10T21:06:09.612Z,18.77
2022-09-10T21:08:38.051Z,18.81
2022-09-10T21:11:08.209Z,18.74
2022-09-10T21:13:37.384Z,18.78
2022-09-10T21:16:11.202Z,18.80
2022-09-10T21:18:41.151Z,18.78
2022-09-10T21:21:10.439Z,18.80
2022-09-10T21:23:42.951Z,18.77
2022-09-10T21:26:11.094Z,18.78
2022-09-10T21:28:38.909Z,18.65
2022-09-10T21:31:07.660Z,18.75
2022-09-10T21:33:37.669Z,18.76
2022-09-10T21:36:07.330Z,18.77
2022-09-10T21:38:35.954Z,18.67
2022-09-10T21:41:05.206Z,18.68
2022-09-10T21:43:34.598Z,18.78
2022-09-10T21:46:03.300Z,18.82
2022-09-10T21:48:31.676Z,18.75
2022-09-10T21:51:01.548Z,18.81
2022-09-10T21:53:29.291Z,18.82
2022-09-10T21:55:57.383Z,18.80
2022-09-10T21:58:27.862Z,18.79
2022-09-10T22:00:58.260Z,18.80
2022-09-10T22:03:26.376Z,18.82
2022-09-10T22:05:54.341Z,18.56
2022-09-10T22:08:23.587Z,18.82
2022-09-10T22:10:51.708Z,18.77
2022-09-10T22:13:19.423Z,18.75
2022-09-10T22:15:49.534Z,18.81
2022-09-10T22:18:17.560Z,18.82
2022-09-10T22:20:45.331Z,18.83
2022-09-10T22:23:15.631Z,18.83
2022-09-10T22:25:44.729Z,18.82
2022-09-10T22:28:12.450Z,18.76
2022-09-10T22:30:42.326Z,18.77
2022-09-10T22:33:10.099Z,18.77
2022-09-10T22:35:39.086Z,18.75
2022-09-10T22:38:06.854Z,18.75
2022-09-10T22:40:34.637Z,18.75
2022-09-10T22:43:03.751Z,18.74
2022-09-10T22:45:32.444Z,18.71
2022-09-10T22:48:00.155Z,18.71
2022-09-10T22:50:27.896Z,18.73
2022-09-10T22:52:56.271Z,18.73
2022-09-10T22:55:23.987Z,18.65
2022-09-10T22:57:51.708Z,18.64
2022-09-10T23:00:22.124Z,18.65
2022-09-10T23:02:49.819Z,18.56
2022-09-10T23:05:17.678Z,18.64
2022-09-10T23:07:45.337Z,18.55
2022-09-10T23:10:13.055Z,18.51
2022-09-10T23:12:41.021Z,18.58
2022-09-10T23:15:09.269Z,18.50
2022-09-10T23:17:38.457Z,18.57
2022-09-10T23:20:07.515Z,18.56
2022-09-10T23:22:35.280Z,18.46
2022-09-10T23:25:03.019Z,18.58
2022-09-10T23:27:30.716Z,18.56
2022-09-10T23:29:58.551Z,18.59
2022-09-10T23:32:26.311Z,18.56
2022-09-10T23:34:55.391Z,18.59
2022-09-10T23:37:23.051Z,18.54
2022-09-10T23:39:51.695Z,18.54
2022-09-10T23:42:19.449Z,18.51
2022-09-10T23:44:47.176Z,18.50
2022-09-10T23:47:14.888Z,18.56
2022-09-10T23:49:42.932Z,18.53
2022-09-10T23:52:12.022Z,18.58
2022-09-10T23:54:39.728Z,18.50
2022-09-10T23:57:07.451Z,18.50
2022-09-10T23:59:35.164Z,18.55
